sensor_id;sensor_type;location;lat;lon;timestamp;P1;durP1;ratioP1;P2;durP2;ratioP2
44214;SDS011;29884;47.450;19.124;2023-03-01T00:01:58;13.85;;;8.35;;
44214;SDS011;29884;47.450;19.124;2023-03-01T00:04:24;16.10;;;9.23;;
44214;SDS011;29884;47.450;19.124;2023-03-01T00:06:50;16.63;;;9.18;;
44214;SDS011;29884;47.450;19.124;2023-03-01T00:09:16;13.40;;;7.68;;
44214;SDS011;29884;47.450;19.124;2023-03-01T00:11:42;14.50;;;9.55;;
44214;SDS011;29884;47.450;19.124;2023-03-01T00:14:08;15.38;;;9.27;;
44214;SDS011;29884;47.450;19.124;2023-03-01T00:16:35;16.02;;;8.98;;
44214;SDS011;29884;47.450;19.124;2023-03-01T00:19:06;15.43;;;9.57;;
44214;SDS011;29884;47.450;19.124;2023-03-01T00:21:33;15.80;;;9.85;;
44214;SDS011;29884;47.450;19.124;2023-03-01T00:24:00;16.33;;;9.07;;
44214;SDS011;29884;47.450;19.124;2023-03-01T00:26:26;17.00;;;9.63;;
44214;SDS011;29884;47.450;19.124;2023-03-01T00:28:52;17.70;;;9.75;;
44214;SDS011;29884;47.450;19.124;2023-03-01T00:31:24;17.23;;;9.32;;
44214;SDS011;29884;47.450;19.124;2023-03-01T00:33:52;16.85;;;9.85;;
44214;SDS011;29884;47.450;19.124;2023-03-01T00:36:22;17.15;;;9.75;;
44214;SDS011;29884;47.450;19.124;2023-03-01T00:38:49;17.25;;;10.40;;
44214;SDS011;29884;47.450;19.124;2023-03-01T00:41:16;17.00;;;10.25;;
44214;SDS011;29884;47.450;19.124;2023-03-01T00:43:43;17.58;;;10.45;;
44214;SDS011;29884;47.450;19.124;2023-03-01T00:46:14;17.42;;;10.32;;
44214;SDS011;29884;47.450;19.124;2023-03-01T00:48:41;18.08;;;10.20;;
44214;SDS011;29884;47.450;19.124;2023-03-01T00:53:38;17.27;;;9.15;;
44214;SDS011;29884;47.450;19.124;2023-03-01T00:56:04;16.27;;;9.13;;
44214;SDS011;29884;47.450;19.124;2023-03-01T00:58:31;14.82;;;8.85;;
44214;SDS011;29884;47.450;19.124;2023-03-01T01:00:57;14.38;;;8.10;;
44214;SDS011;29884;47.450;19.124;2023-03-01T01:03:23;14.13;;;8.82;;
44214;SDS011;29884;47.450;19.124;2023-03-01T01:05:50;14.50;;;8.75;;
44214;SDS011;29884;47.450;19.124;2023-03-01T01:08:17;15.88;;;8.95;;
44214;SDS011;29884;47.450;19.124;2023-03-01T01:10:44;14.68;;;8.60;;
44214;SDS011;29884;47.450;19.124;2023-03-01T01:13:10;15.15;;;7.53;;
44214;SDS011;29884;47.450;19.124;2023-03-01T01:15:36;16.13;;;8.38;;
44214;SDS011;29884;47.450;19.124;2023-03-01T01:18:01;14.25;;;9.15;;
44214;SDS011;29884;47.450;19.124;2023-03-01T01:20:28;15.45;;;7.82;;
44214;SDS011;29884;47.450;19.124;2023-03-01T01:22:54;13.25;;;8.50;;
44214;SDS011;29884;47.450;19.124;2023-03-01T01:25:20;15.10;;;8.93;;
44214;SDS011;29884;47.450;19.124;2023-03-01T01:27:46;16.45;;;9.27;;
44214;SDS011;29884;47.450;19.124;2023-03-01T01:30:12;13.90;;;7.80;;
44214;SDS011;29884;47.450;19.124;2023-03-01T01:32:38;11.80;;;7.65;;
44214;SDS011;29884;47.450;19.124;2023-03-01T01:35:04;12.30;;;7.95;;
44214;SDS011;29884;47.450;19.124;2023-03-01T01:37:30;12.77;;;7.75;;
44214;SDS011;29884;47.450;19.124;2023-03-01T01:39:58;14.60;;;7.13;;
44214;SDS011;29884;47.450;19.124;2023-03-01T01:42:25;12.55;;;7.07;;
44214;SDS011;29884;47.450;19.124;2023-03-01T01:47:55;10.87;;;7.07;;
44214;SDS011;29884;47.450;19.124;2023-03-01T01:50:25;13.73;;;7.25;;
44214;SDS011;29884;47.450;19.124;2023-03-01T01:52:51;13.23;;;7.97;;
44214;SDS011;29884;47.450;19.124;2023-03-01T01:55:21;12.35;;;7.40;;
44214;SDS011;29884;47.450;19.124;2023-03-01T01:57:53;13.40;;;7.67;;
44214;SDS011;29884;47.450;19.124;2023-03-01T02:00:28;12.57;;;7.70;;
44214;SDS011;29884;47.450;19.124;2023-03-01T02:02:56;13.85;;;8.23;;
44214;SDS011;29884;47.450;19.124;2023-03-01T02:08:20;16.25;;;7.95;;
44214;SDS011;29884;47.450;19.124;2023-03-01T02:10:49;13.95;;;7.13;;
44214;SDS011;29884;47.450;19.124;2023-03-01T02:13:17;13.27;;;7.60;;
44214;SDS011;29884;47.450;19.124;2023-03-01T02:15:43;14.50;;;7.60;;
44214;SDS011;29884;47.450;19.124;2023-03-01T02:18:10;10.38;;;6.13;;
44214;SDS011;29884;47.450;19.124;2023-03-01T02:23:28;10.73;;;6.40;;
44214;SDS011;29884;47.450;19.124;2023-03-01T02:28:23;8.40;;;5.88;;
44214;SDS011;29884;47.450;19.124;2023-03-01T02:30:54;11.93;;;6.82;;
44214;SDS011;29884;47.450;19.124;2023-03-01T02:33:39;10.65;;;6.78;;
44214;SDS011;29884;47.450;19.124;2023-03-01T02:36:12;10.95;;;6.85;;
44214;SDS011;29884;47.450;19.124;2023-03-01T02:38:43;12.40;;;6.88;;
44214;SDS011;29884;47.450;19.124;2023-03-01T02:41:10;12.00;;;7.25;;
44214;SDS011;29884;47.450;19.124;2023-03-01T02:43:39;13.73;;;7.30;;
44214;SDS011;29884;47.450;19.124;2023-03-01T02:46:08;11.35;;;6.60;;
44214;SDS011;29884;47.450;19.124;2023-03-01T02:48:40;12.77;;;7.13;;
44214;SDS011;29884;47.450;19.124;2023-03-01T02:56:57;11.98;;;7.22;;
44214;SDS011;29884;47.450;19.124;2023-03-01T02:59:28;9.82;;;6.78;;
44214;SDS011;29884;47.450;19.124;2023-03-01T03:01:56;11.35;;;7.10;;
44214;SDS011;29884;47.450;19.124;2023-03-01T03:04:22;12.00;;;7.32;;
44214;SDS011;29884;47.450;19.124;2023-03-01T03:06:49;14.45;;;7.43;;
44214;SDS011;29884;47.450;19.124;2023-03-01T03:09:16;12.23;;;7.38;;
44214;SDS011;29884;47.450;19.124;2023-03-01T03:11:42;12.65;;;6.82;;
44214;SDS011;29884;47.450;19.124;2023-03-01T03:14:09;10.95;;;7.00;;
44214;SDS011;29884;47.450;19.124;2023-03-01T03:16:41;11.80;;;7.35;;
44214;SDS011;29884;47.450;19.124;2023-03-01T03:19:07;13.18;;;7.13;;
44214;SDS011;29884;47.450;19.124;2023-03-01T03:21:33;11.95;;;6.97;;
44214;SDS011;29884;47.450;19.124;2023-03-01T03:23:59;11.10;;;6.97;;
44214;SDS011;29884;47.450;19.124;2023-03-01T03:26:26;13.98;;;7.70;;
44214;SDS011;29884;47.450;19.124;2023-03-01T03:28:51;12.27;;;7.68;;
44214;SDS011;29884;47.450;19.124;2023-03-01T03:31:17;13.73;;;6.75;;
44214;SDS011;29884;47.450;19.124;2023-03-01T03:33:43;14.68;;;8.07;;
44214;SDS011;29884;47.450;19.124;2023-03-01T03:36:09;14.93;;;8.02;;
44214;SDS011;29884;47.450;19.124;2023-03-01T03:38:42;14.40;;;8.40;;
44214;SDS011;29884;47.450;19.124;2023-03-01T03:41:10;13.85;;;7.80;;
44214;SDS011;29884;47.450;19.124;2023-03-01T03:43:36;12.20;;;7.47;;
44214;SDS011;29884;47.450;19.124;2023-03-01T03:46:03;12.85;;;7.65;;
44214;SDS011;29884;47.450;19.124;2023-03-01T03:48:33;13.10;;;8.10;;
44214;SDS011;29884;47.450;19.124;2023-03-01T03:50:59;12.85;;;7.53;;
44214;SDS011;29884;47.450;19.124;2023-03-01T03:53:26;13.25;;;7.20;;
44214;SDS011;29884;47.450;19.124;2023-03-01T03:55:53;13.93;;;7.72;;
44214;SDS011;29884;47.450;19.124;2023-03-01T03:58:19;13.55;;;7.63;;
44214;SDS011;29884;47.450;19.124;2023-03-01T04:00:47;13.40;;;7.47;;
44214;SDS011;29884;47.450;19.124;2023-03-01T04:03:16;14.00;;;7.85;;
44214;SDS011;29884;47.450;19.124;2023-03-01T04:05:43;14.02;;;7.95;;
44214;SDS011;29884;47.450;19.124;2023-03-01T04:08:10;14.55;;;7.65;;
44214;SDS011;29884;47.450;19.124;2023-03-01T04:10:40;12.57;;;7.78;;
44214;SDS011;29884;47.450;19.124;2023-03-01T04:13:12;13.48;;;7.40;;
44214;SDS011;29884;47.450;19.124;2023-03-01T04:15:40;12.88;;;7.57;;
44214;SDS011;29884;47.450;19.124;2023-03-01T04:18:06;15.30;;;7.28;;
44214;SDS011;29884;47.450;19.124;2023-03-01T04:20:33;10.95;;;7.18;;
44214;SDS011;29884;47.450;19.124;2023-03-01T04:23:04;11.80;;;7.80;;
44214;SDS011;29884;47.450;19.124;2023-03-01T04:28:21;14.38;;;7.45;;
44214;SDS011;29884;47.450;19.124;2023-03-01T04:30:51;11.77;;;7.03;;
44214;SDS011;29884;47.450;19.124;2023-03-01T04:33:18;13.00;;;6.85;;
44214;SDS011;29884;47.450;19.124;2023-03-01T04:35:44;13.23;;;6.93;;
44214;SDS011;29884;47.450;19.124;2023-03-01T04:38:09;12.70;;;8.02;;
44214;SDS011;29884;47.450;19.124;2023-03-01T04:40:35;14.25;;;6.82;;
44214;SDS011;29884;47.450;19.124;2023-03-01T04:43:01;14.27;;;7.47;;
44214;SDS011;29884;47.450;19.124;2023-03-01T04:45:27;12.93;;;7.00;;
44214;SDS011;29884;47.450;19.124;2023-03-01T04:47:53;11.43;;;6.97;;
44214;SDS011;29884;47.450;19.124;2023-03-01T04:50:19;10.48;;;7.03;;
44214;SDS011;29884;47.450;19.124;2023-03-01T04:52:46;10.07;;;6.88;;
44214;SDS011;29884;47.450;19.124;2023-03-01T04:55:13;11.82;;;6.72;;
44214;SDS011;29884;47.450;19.124;2023-03-01T04:57:39;12.00;;;7.10;;
44214;SDS011;29884;47.450;19.124;2023-03-01T05:00:06;12.18;;;7.20;;
44214;SDS011;29884;47.450;19.124;2023-03-01T05:02:48;14.30;;;7.60;;
44214;SDS011;29884;47.450;19.124;2023-03-01T05:05:18;10.75;;;6.93;;
44214;SDS011;29884;47.450;19.124;2023-03-01T05:07:45;14.35;;;7.68;;
44214;SDS011;29884;47.450;19.124;2023-03-01T05:10:11;11.55;;;7.40;;
44214;SDS011;29884;47.450;19.124;2023-03-01T05:12:36;11.35;;;7.20;;
44214;SDS011;29884;47.450;19.124;2023-03-01T05:15:03;10.77;;;6.82;;
44214;SDS011;29884;47.450;19.124;2023-03-01T05:17:32;16.45;;;8.07;;
44214;SDS011;29884;47.450;19.124;2023-03-01T05:19:59;13.60;;;7.45;;
44214;SDS011;29884;47.450;19.124;2023-03-01T05:22:25;11.95;;;7.38;;
44214;SDS011;29884;47.450;19.124;2023-03-01T05:24:51;11.07;;;6.93;;
44214;SDS011;29884;47.450;19.124;2023-03-01T05:27:19;10.40;;;6.75;;
44214;SDS011;29884;47.450;19.124;2023-03-01T05:29:47;11.68;;;7.22;;
44214;SDS011;29884;47.450;19.124;2023-03-01T05:32:12;12.65;;;7.22;;
44214;SDS011;29884;47.450;19.124;2023-03-01T05:34:40;13.82;;;7.57;;
44214;SDS011;29884;47.450;19.124;2023-03-01T05:37:07;12.95;;;7.00;;
44214;SDS011;29884;47.450;19.124;2023-03-01T05:39:33;12.23;;;6.60;;
44214;SDS011;29884;47.450;19.124;2023-03-01T05:41:59;11.98;;;6.72;;
44214;SDS011;29884;47.450;19.124;2023-03-01T05:44:26;13.85;;;6.88;;
44214;SDS011;29884;47.450;19.124;2023-03-01T05:46:54;12.00;;;7.40;;
44214;SDS011;29884;47.450;19.124;2023-03-01T05:49:20;11.40;;;6.82;;
44214;SDS011;29884;47.450;19.124;2023-03-01T05:51:49;10.73;;;7.30;;
44214;SDS011;29884;47.450;19.124;2023-03-01T05:54:17;11.57;;;6.90;;
44214;SDS011;29884;47.450;19.124;2023-03-01T05:56:43;11.95;;;6.70;;
44214;SDS011;29884;47.450;19.124;2023-03-01T05:59:09;12.20;;;7.20;;
44214;SDS011;29884;47.450;19.124;2023-03-01T06:01:35;10.32;;;6.50;;
44214;SDS011;29884;47.450;19.124;2023-03-01T06:04:02;11.18;;;6.57;;
44214;SDS011;29884;47.450;19.124;2023-03-01T06:06:29;16.05;;;7.03;;
44214;SDS011;29884;47.450;19.124;2023-03-01T06:08:58;11.07;;;6.35;;
44214;SDS011;29884;47.450;19.124;2023-03-01T06:11:24;13.93;;;7.15;;
44214;SDS011;29884;47.450;19.124;2023-03-01T06:13:49;10.38;;;6.60;;
44214;SDS011;29884;47.450;19.124;2023-03-01T06:16:15;10.98;;;6.45;;
44214;SDS011;29884;47.450;19.124;2023-03-01T06:18:41;11.85;;;6.53;;
44214;SDS011;29884;47.450;19.124;2023-03-01T06:21:07;11.40;;;6.88;;
44214;SDS011;29884;47.450;19.124;2023-03-01T06:23:33;9.25;;;6.03;;
44214;SDS011;29884;47.450;19.124;2023-03-01T06:25:59;9.77;;;6.25;;
44214;SDS011;29884;47.450;19.124;2023-03-01T06:28:25;10.55;;;6.28;;
44214;SDS011;29884;47.450;19.124;2023-03-01T06:30:51;12.73;;;6.72;;
44214;SDS011;29884;47.450;19.124;2023-03-01T06:33:18;10.27;;;6.05;;
44214;SDS011;29884;47.450;19.124;2023-03-01T06:35:45;12.95;;;6.28;;
44214;SDS011;29884;47.450;19.124;2023-03-01T06:38:12;11.20;;;6.70;;
44214;SDS011;29884;47.450;19.124;2023-03-01T06:40:39;13.32;;;6.70;;
44214;SDS011;29884;47.450;19.124;2023-03-01T06:43:06;14.25;;;6.65;;
44214;SDS011;29884;47.450;19.124;2023-03-01T06:45:32;11.18;;;6.88;;
44214;SDS011;29884;47.450;19.124;2023-03-01T06:48:02;10.07;;;6.38;;
44214;SDS011;29884;47.450;19.124;2023-03-01T06:50:28;13.07;;;6.15;;
44214;SDS011;29884;47.450;19.124;2023-03-01T06:52:58;12.85;;;6.10;;
44214;SDS011;29884;47.450;19.124;2023-03-01T06:55:23;12.02;;;6.57;;
44214;SDS011;29884;47.450;19.124;2023-03-01T06:57:53;11.45;;;6.47;;
44214;SDS011;29884;47.450;19.124;2023-03-01T07:00:22;11.45;;;7.03;;
44214;SDS011;29884;47.450;19.124;2023-03-01T07:02:48;9.85;;;6.03;;
44214;SDS011;29884;47.450;19.124;2023-03-01T07:05:14;10.13;;;6.32;;
44214;SDS011;29884;47.450;19.124;2023-03-01T07:07:40;10.63;;;6.45;;
44214;SDS011;29884;47.450;19.124;2023-03-01T07:10:06;10.93;;;6.68;;
44214;SDS011;29884;47.450;19.124;2023-03-01T07:12:32;12.02;;;6.35;;
44214;SDS011;29884;47.450;19.124;2023-03-01T07:14:58;12.32;;;6.53;;
44214;SDS011;29884;47.450;19.124;2023-03-01T07:17:24;9.93;;;6.13;;
44214;SDS011;29884;47.450;19.124;2023-03-01T07:19:50;10.85;;;6.43;;
44214;SDS011;29884;47.450;19.124;2023-03-01T07:22:16;13.45;;;6.55;;
44214;SDS011;29884;47.450;19.124;2023-03-01T07:24:42;10.38;;;6.32;;
44214;SDS011;29884;47.450;19.124;2023-03-01T07:27:08;11.30;;;6.47;;
44214;SDS011;29884;47.450;19.124;2023-03-01T07:29:34;10.07;;;6.43;;
44214;SDS011;29884;47.450;19.124;2023-03-01T07:32:01;11.25;;;6.88;;
44214;SDS011;29884;47.450;19.124;2023-03-01T07:34:28;10.32;;;6.63;;
44214;SDS011;29884;47.450;19.124;2023-03-01T07:36:54;11.82;;;6.28;;
44214;SDS011;29884;47.450;19.124;2023-03-01T07:39:20;11.95;;;7.20;;
44214;SDS011;29884;47.450;19.124;2023-03-01T07:41:47;12.00;;;6.60;;
44214;SDS011;29884;47.450;19.124;2023-03-01T07:44:14;12.35;;;7.07;;
44214;SDS011;29884;47.450;19.124;2023-03-01T07:46:41;11.40;;;6.68;;
44214;SDS011;29884;47.450;19.124;2023-03-01T07:49:07;10.07;;;6.95;;
44214;SDS011;29884;47.450;19.124;2023-03-01T07:51:32;10.65;;;6.45;;
44214;SDS011;29884;47.450;19.124;2023-03-01T07:53:58;11.13;;;6.88;;
44214;SDS011;29884;47.450;19.124;2023-03-01T07:56:24;10.65;;;6.28;;
44214;SDS011;29884;47.450;19.124;2023-03-01T07:58:49;12.73;;;7.03;;
44214;SDS011;29884;47.450;19.124;2023-03-01T08:01:16;10.02;;;6.43;;
44214;SDS011;29884;47.450;19.124;2023-03-01T08:03:43;11.25;;;6.43;;
44214;SDS011;29884;47.450;19.124;2023-03-01T08:06:10;12.60;;;6.82;;
44214;SDS011;29884;47.450;19.124;2023-03-01T08:08:37;10.63;;;6.45;;
44214;SDS011;29884;47.450;19.124;2023-03-01T08:11:04;9.55;;;5.95;;
44214;SDS011;29884;47.450;19.124;2023-03-01T08:13:32;11.70;;;6.57;;
44214;SDS011;29884;47.450;19.124;2023-03-01T08:16:05;14.25;;;6.63;;
44214;SDS011;29884;47.450;19.124;2023-03-01T08:18:32;11.95;;;6.95;;
44214;SDS011;29884;47.450;19.124;2023-03-01T08:21:05;12.38;;;6.72;;
44214;SDS011;29884;47.450;19.124;2023-03-01T08:23:32;10.95;;;6.30;;
44214;SDS011;29884;47.450;19.124;2023-03-01T08:26:08;13.15;;;7.43;;
44214;SDS011;29884;47.450;19.124;2023-03-01T08:28:43;14.20;;;7.28;;
44214;SDS011;29884;47.450;19.124;2023-03-01T08:31:23;10.55;;;6.65;;
44214;SDS011;29884;47.450;19.124;2023-03-01T08:33:55;13.07;;;7.25;;
44214;SDS011;29884;47.450;19.124;2023-03-01T08:36:26;11.57;;;7.10;;
44214;SDS011;29884;47.450;19.124;2023-03-01T08:38:53;12.07;;;7.25;;
44214;SDS011;29884;47.450;19.124;2023-03-01T08:41:19;11.32;;;7.22;;
44214;SDS011;29884;47.450;19.124;2023-03-01T08:43:45;13.73;;;6.55;;
44214;SDS011;29884;47.450;19.124;2023-03-01T08:46:11;14.30;;;8.10;;
44214;SDS011;29884;47.450;19.124;2023-03-01T08:48:38;10.98;;;7.05;;
44214;SDS011;29884;47.450;19.124;2023-03-01T08:51:14;9.68;;;6.00;;
44214;SDS011;29884;47.450;19.124;2023-03-01T08:53:42;16.27;;;6.57;;
44214;SDS011;29884;47.450;19.124;2023-03-01T08:56:08;11.18;;;6.80;;
44214;SDS011;29884;47.450;19.124;2023-03-01T08:58:34;18.08;;;10.70;;
44214;SDS011;29884;47.450;19.124;2023-03-01T09:01:00;11.45;;;6.43;;
44214;SDS011;29884;47.450;19.124;2023-03-01T09:03:31;11.13;;;6.00;;
44214;SDS011;29884;47.450;19.124;2023-03-01T09:05:59;10.13;;;6.95;;
44214;SDS011;29884;47.450;19.124;2023-03-01T09:08:26;11.15;;;6.38;;
44214;SDS011;29884;47.450;19.124;2023-03-01T09:10:52;9.60;;;6.60;;
44214;SDS011;29884;47.450;19.124;2023-03-01T09:13:18;9.27;;;5.90;;
44214;SDS011;29884;47.450;19.124;2023-03-01T09:15:44;10.13;;;5.90;;
44214;SDS011;29884;47.450;19.124;2023-03-01T09:18:09;11.10;;;5.97;;
44214;SDS011;29884;47.450;19.124;2023-03-01T09:20:35;9.15;;;6.28;;
44214;SDS011;29884;47.450;19.124;2023-03-01T09:23:01;10.15;;;6.88;;
44214;SDS011;29884;47.450;19.124;2023-03-01T09:25:27;11.27;;;6.38;;
44214;SDS011;29884;47.450;19.124;2023-03-01T09:27:53;9.00;;;6.07;;
44214;SDS011;29884;47.450;19.124;2023-03-01T09:30:20;9.55;;;5.93;;
44214;SDS011;29884;47.450;19.124;2023-03-01T09:32:45;10.90;;;6.70;;
44214;SDS011;29884;47.450;19.124;2023-03-01T09:35:11;9.73;;;5.75;;
44214;SDS011;29884;47.450;19.124;2023-03-01T09:37:37;9.43;;;6.20;;
44214;SDS011;29884;47.450;19.124;2023-03-01T09:40:09;10.18;;;6.40;;
44214;SDS011;29884;47.450;19.124;2023-03-01T09:42:55;9.25;;;6.38;;
44214;SDS011;29884;47.450;19.124;2023-03-01T09:45:40;8.38;;;5.90;;
44214;SDS011;29884;47.450;19.124;2023-03-01T09:48:11;9.32;;;5.85;;
44214;SDS011;29884;47.450;19.124;2023-03-01T09:50:41;8.85;;;5.70;;
44214;SDS011;29884;47.450;19.124;2023-03-01T09:53:21;9.85;;;5.68;;
44214;SDS011;29884;47.450;19.124;2023-03-01T09:58:48;6.25;;;4.60;;
44214;SDS011;29884;47.450;19.124;2023-03-01T10:09:34;8.52;;;4.70;;
44214;SDS011;29884;47.450;19.124;2023-03-01T10:12:09;5.75;;;4.45;;
44214;SDS011;29884;47.450;19.124;2023-03-01T10:19:50;7.30;;;4.22;;
44214;SDS011;29884;47.450;19.124;2023-03-01T10:22:21;5.72;;;4.13;;
44214;SDS011;29884;47.450;19.124;2023-03-01T10:24:50;6.82;;;3.67;;
44214;SDS011;29884;47.450;19.124;2023-03-01T10:27:51;5.47;;;3.75;;
44214;SDS011;29884;47.450;19.124;2023-03-01T10:30:53;5.47;;;3.33;;
44214;SDS011;29884;47.450;19.124;2023-03-01T10:33:24;6.65;;;3.97;;
44214;SDS011;29884;47.450;19.124;2023-03-01T10:35:54;6.82;;;4.20;;
44214;SDS011;29884;47.450;19.124;2023-03-01T10:38:20;5.82;;;3.60;;
44214;SDS011;29884;47.450;19.124;2023-03-01T10:43:46;6.55;;;3.90;;
44214;SDS011;29884;47.450;19.124;2023-03-01T10:51:42;5.35;;;3.50;;
44214;SDS011;29884;47.450;19.124;2023-03-01T10:54:31;7.90;;;3.35;;
44214;SDS011;29884;47.450;19.124;2023-03-01T10:56:59;5.95;;;3.80;;
44214;SDS011;29884;47.450;19.124;2023-03-01T10:59:34;6.22;;;3.80;;
44214;SDS011;29884;47.450;19.124;2023-03-01T11:04:58;6.25;;;3.80;;
44214;SDS011;29884;47.450;19.124;2023-03-01T11:07:26;6.35;;;3.35;;
44214;SDS011;29884;47.450;19.124;2023-03-01T11:09:52;5.50;;;3.00;;
44214;SDS011;29884;47.450;19.124;2023-03-01T11:12:19;5.05;;;3.70;;
44214;SDS011;29884;47.450;19.124;2023-03-01T11:14:49;5.97;;;3.60;;
44214;SDS011;29884;47.450;19.124;2023-03-01T11:17:25;5.35;;;4.00;;
44214;SDS011;29884;47.450;19.124;2023-03-01T11:20:00;4.57;;;3.53;;
44214;SDS011;29884;47.450;19.124;2023-03-01T11:22:26;5.97;;;3.58;;
44214;SDS011;29884;47.450;19.124;2023-03-01T11:24:53;5.10;;;3.53;;
44214;SDS011;29884;47.450;19.124;2023-03-01T11:30:05;5.47;;;4.05;;
44214;SDS011;29884;47.450;19.124;2023-03-01T11:32:42;7.78;;;4.50;;
44214;SDS011;29884;47.450;19.124;2023-03-01T11:41:06;5.07;;;3.40;;
44214;SDS011;29884;47.450;19.124;2023-03-01T11:49:01;4.57;;;3.10;;
44214;SDS011;29884;47.450;19.124;2023-03-01T12:17:14;3.08;;;2.63;;
44214;SDS011;29884;47.450;19.124;2023-03-01T12:22:39;3.70;;;2.80;;
44214;SDS011;29884;47.450;19.124;2023-03-01T12:25:34;3.30;;;2.47;;
44214;SDS011;29884;47.450;19.124;2023-03-01T12:37:11;4.75;;;2.55;;
44214;SDS011;29884;47.450;19.124;2023-03-01T12:50:42;5.80;;;2.25;;
44214;SDS011;29884;47.450;19.124;2023-03-01T12:56:19;3.35;;;1.63;;
44214;SDS011;29884;47.450;19.124;2023-03-01T13:01:41;2.72;;;1.30;;
44214;SDS011;29884;47.450;19.124;2023-03-01T13:04:35;3.22;;;1.80;;
44214;SDS011;29884;47.450;19.124;2023-03-01T13:09:40;5.75;;;1.58;;
44214;SDS011;29884;47.450;19.124;2023-03-01T13:17:51;2.78;;;1.60;;
44214;SDS011;29884;47.450;19.124;2023-03-01T13:20:20;3.42;;;1.58;;
44214;SDS011;29884;47.450;19.124;2023-03-01T13:25:33;2.28;;;1.20;;
44214;SDS011;29884;47.450;19.124;2023-03-01T13:30:59;2.63;;;1.52;;
44214;SDS011;29884;47.450;19.124;2023-03-01T13:35:51;2.92;;;1.30;;
44214;SDS011;29884;47.450;19.124;2023-03-01T13:41:47;2.13;;;1.08;;
44214;SDS011;29884;47.450;19.124;2023-03-01T13:47:07;2.72;;;1.23;;
44214;SDS011;29884;47.450;19.124;2023-03-01T13:49:43;3.83;;;1.20;;
44214;SDS011;29884;47.450;19.124;2023-03-01T13:57:46;2.83;;;1.60;;
44214;SDS011;29884;47.450;19.124;2023-03-01T14:08:26;2.72;;;1.70;;
44214;SDS011;29884;47.450;19.124;2023-03-01T14:16:35;3.30;;;1.30;;
44214;SDS011;29884;47.450;19.124;2023-03-01T14:19:34;2.35;;;1.10;;
44214;SDS011;29884;47.450;19.124;2023-03-01T14:24:52;3.00;;;1.20;;
44214;SDS011;29884;47.450;19.124;2023-03-01T14:27:19;6.25;;;1.35;;
44214;SDS011;29884;47.450;19.124;2023-03-01T14:29:58;3.78;;;1.00;;
44214;SDS011;29884;47.450;19.124;2023-03-01T14:32:26;2.85;;;1.42;;
44214;SDS011;29884;47.450;19.124;2023-03-01T14:34:53;2.97;;;1.20;;
44214;SDS011;29884;47.450;19.124;2023-03-01T14:39:57;3.45;;;1.30;;
44214;SDS011;29884;47.450;19.124;2023-03-01T14:42:25;8.00;;;1.30;;
44214;SDS011;29884;47.450;19.124;2023-03-01T14:44:53;6.50;;;1.50;;
44214;SDS011;29884;47.450;19.124;2023-03-01T14:47:28;2.80;;;1.13;;
44214;SDS011;29884;47.450;19.124;2023-03-01T14:50:00;4.53;;;1.58;;
44214;SDS011;29884;47.450;19.124;2023-03-01T14:52:48;3.10;;;1.80;;
44214;SDS011;29884;47.450;19.124;2023-03-01T14:55:19;4.43;;;1.48;;
44214;SDS011;29884;47.450;19.124;2023-03-01T14:58:08;7.53;;;1.63;;
44214;SDS011;29884;47.450;19.124;2023-03-01T15:00:38;2.97;;;1.33;;
44214;SDS011;29884;47.450;19.124;2023-03-01T15:03:08;3.08;;;1.52;;
44214;SDS011;29884;47.450;19.124;2023-03-01T15:05:40;4.00;;;1.50;;
44214;SDS011;29884;47.450;19.124;2023-03-01T15:08:08;3.63;;;1.42;;
44214;SDS011;29884;47.450;19.124;2023-03-01T15:10:58;5.00;;;1.35;;
44214;SDS011;29884;47.450;19.124;2023-03-01T15:16:13;3.28;;;1.55;;
44214;SDS011;29884;47.450;19.124;2023-03-01T15:18:50;4.53;;;1.60;;
44214;SDS011;29884;47.450;19.124;2023-03-01T15:23:54;2.38;;;1.40;;
44214;SDS011;29884;47.450;19.124;2023-03-01T15:26:28;3.95;;;1.65;;
44214;SDS011;29884;47.450;19.124;2023-03-01T15:29:03;3.65;;;1.20;;
44214;SDS011;29884;47.450;19.124;2023-03-01T15:31:32;3.08;;;1.27;;
44214;SDS011;29884;47.450;19.124;2023-03-01T15:34:10;5.85;;;1.20;;
44214;SDS011;29884;47.450;19.124;2023-03-01T15:39:36;4.45;;;1.17;;
44214;SDS011;29884;47.450;19.124;2023-03-01T15:42:09;3.80;;;1.40;;
44214;SDS011;29884;47.450;19.124;2023-03-01T15:45:08;3.73;;;1.67;;
44214;SDS011;29884;47.450;19.124;2023-03-01T15:47:39;5.75;;;1.30;;
44214;SDS011;29884;47.450;19.124;2023-03-01T15:50:11;3.25;;;1.50;;
44214;SDS011;29884;47.450;19.124;2023-03-01T15:53:11;3.97;;;1.25;;
44214;SDS011;29884;47.450;19.124;2023-03-01T15:55:39;6.10;;;1.40;;
44214;SDS011;29884;47.450;19.124;2023-03-01T16:00:34;5.35;;;1.20;;
44214;SDS011;29884;47.450;19.124;2023-03-01T16:03:00;3.95;;;1.30;;
44214;SDS011;29884;47.450;19.124;2023-03-01T16:05:27;2.85;;;1.00;;
44214;SDS011;29884;47.450;19.124;2023-03-01T16:07:57;2.30;;;1.05;;
44214;SDS011;29884;47.450;19.124;2023-03-01T16:10:24;3.15;;;1.20;;
44214;SDS011;29884;47.450;19.124;2023-03-01T16:12:50;3.47;;;1.00;;
44214;SDS011;29884;47.450;19.124;2023-03-01T16:17:46;5.35;;;1.42;;
44214;SDS011;29884;47.450;19.124;2023-03-01T16:20:12;3.92;;;1.20;;
44214;SDS011;29884;47.450;19.124;2023-03-01T16:22:41;4.15;;;1.30;;
44214;SDS011;29884;47.450;19.124;2023-03-01T16:25:08;3.65;;;1.30;;
44214;SDS011;29884;47.450;19.124;2023-03-01T16:27:35;4.00;;;1.20;;
44214;SDS011;29884;47.450;19.124;2023-03-01T16:30:01;7.05;;;1.83;;
44214;SDS011;29884;47.450;19.124;2023-03-01T16:32:27;8.32;;;2.63;;
44214;SDS011;29884;47.450;19.124;2023-03-01T16:34:52;7.65;;;2.47;;
44214;SDS011;29884;47.450;19.124;2023-03-01T16:37:18;8.00;;;2.60;;
44214;SDS011;29884;47.450;19.124;2023-03-01T16:39:44;7.40;;;2.47;;
44214;SDS011;29884;47.450;19.124;2023-03-01T16:42:10;7.07;;;2.78;;
44214;SDS011;29884;47.450;19.124;2023-03-01T16:44:35;6.20;;;2.92;;
44214;SDS011;29884;47.450;19.124;2023-03-01T16:47:01;7.35;;;3.10;;
44214;SDS011;29884;47.450;19.124;2023-03-01T16:49:27;8.02;;;3.55;;
44214;SDS011;29884;47.450;19.124;2023-03-01T16:51:53;6.13;;;3.03;;
44214;SDS011;29884;47.450;19.124;2023-03-01T16:54:19;8.23;;;3.20;;
44214;SDS011;29884;47.450;19.124;2023-03-01T16:56:44;6.35;;;3.55;;
44214;SDS011;29884;47.450;19.124;2023-03-01T16:59:10;10.82;;;3.15;;
44214;SDS011;29884;47.450;19.124;2023-03-01T17:01:36;6.63;;;3.42;;
44214;SDS011;29884;47.450;19.124;2023-03-01T17:04:06;7.47;;;3.50;;
44214;SDS011;29884;47.450;19.124;2023-03-01T17:06:32;9.60;;;3.67;;
44214;SDS011;29884;47.450;19.124;2023-03-01T17:08:58;8.88;;;3.80;;
44214;SDS011;29884;47.450;19.124;2023-03-01T17:11:24;11.02;;;3.70;;
44214;SDS011;29884;47.450;19.124;2023-03-01T17:13:50;10.23;;;3.83;;
44214;SDS011;29884;47.450;19.124;2023-03-01T17:16:17;12.23;;;3.53;;
44214;SDS011;29884;47.450;19.124;2023-03-01T17:18:44;9.68;;;4.10;;
44214;SDS011;29884;47.450;19.124;2023-03-01T17:21:10;7.20;;;3.45;;
44214;SDS011;29884;47.450;19.124;2023-03-01T17:23:37;7.90;;;3.75;;
44214;SDS011;29884;47.450;19.124;2023-03-01T17:26:05;9.25;;;4.47;;
44214;SDS011;29884;47.450;19.124;2023-03-01T17:28:32;12.68;;;3.20;;
44214;SDS011;29884;47.450;19.124;2023-03-01T17:30:59;8.95;;;4.07;;
44214;SDS011;29884;47.450;19.124;2023-03-01T17:33:25;8.38;;;4.85;;
44214;SDS011;29884;47.450;19.124;2023-03-01T17:35:51;7.97;;;4.47;;